• Join FlightAware (Why Join?)
  • Login
  • US Flag 
05:59PM EDT


 

Airport Tracker/Info


-or-


 

Live Flight TrackerFlight Track Log ✈ N860BA ✈ 23-Oct-2013 ✈ KSAN - KADS

Flight Track Log - Related Links

Times and Time Zones

All times are in EDT time to prevent confusion due to time zone crossing. See the N860BA flight status page for this flight to view local times or setup timezone preferences in your user account.

Time Position Orientation Groundspeed Altitude Reporting Facility
EDT Latitude Longitude Course Direction KTS MPH feet Rate Location/Type
08:42PM 32.7633 -117.3047 288° West 213 245 4,700  Level Los Angeles Center
08:43PM 32.7381 -117.3547 239° Southwest 224 258 7,500 2,760 Climbing Los Angeles Center
08:45PM 32.6942 -117.2700 122° Southeast 225 259 11,100 2,460 Climbing Los Angeles Center
08:46PM 32.6728 -117.1936 108° East 237 273 13,200 1,860 Climbing Los Angeles Center
08:47PM 32.8138 -116.2961 77° East  Level Estimated
08:47PM 32.6461 -117.0986 108° East 293 337 15,000  Level Los Angeles Center
08:48PM 32.6150 -116.9964 110° East 322 371 17,100 1,800 Climbing Los Angeles Center
08:49PM 32.6186 -116.8772 88° East 369 425 18,800 1,440 Climbing Los Angeles Center
08:50PM 32.6361 -116.7203 82° East 396 456 20,100 1,140 Climbing Los Angeles Center
08:51PM 32.6508 -116.5744 83° East 445 512 21,200 1,020 Climbing Los Angeles Center
08:52PM 32.6639 -116.4264 84° East 459 528 22,300 960 Climbing Los Angeles Center
08:53PM 32.6786 -116.2725 83° East 477 549 23,300 1,080 Climbing Los Angeles Center
08:54PM 32.6972 -116.0836 83° East 487 560 24,600 1,140 Climbing Los Angeles Center
08:55PM 32.7117 -115.9233 84° East 489 563 25,700 960 Climbing Los Angeles Center
08:56PM 32.7264 -115.7603 84° East 497 572 26,700 960 Climbing Los Angeles Center
08:57PM 32.7417 -115.5956 84° East 502 578 27,700 960 Climbing Los Angeles Center
08:58PM 32.7531 -115.4303 85° East 504 580 28,800 1,080 Climbing Los Angeles Center
08:59PM 32.7597 -115.1972 88° East 505 581 30,200 1,080 Climbing Los Angeles Center
09:00PM 32.7636 -115.0325 88° East 502 578 31,300 960 Climbing Los Angeles Center
09:01PM 32.7669 -114.8681 89° East 500 575 32,300 960 Climbing Los Angeles Center
09:02PM 32.7703 -114.7042 89° East 498 573 33,400 960 Climbing Los Angeles Center
09:03PM 32.7739 -114.5406 88° East 497 572 34,400 1,020 Climbing Los Angeles Center
09:04PM 32.7769 -114.3478 89° East 490 564 35,600 900 Climbing Los Angeles Center
09:05PM 32.7772 -114.1842 90° East 494 568 36,300 600 Climbing Los Angeles Center
09:06PM 32.7808 -114.0214 88° East 494 568 36,900 300 Climbing Los Angeles Center
09:08PM 32.7933 -113.8564 85° East 500 575 37,000  Climbing Los Angeles Center
09:09PM 32.8200 -113.6897 79° East 509 586 37,000  Level Los Angeles Center
09:10PM 32.8422 -113.5219 81° East 513 590 37,000  Level Los Angeles Center
09:11PM 32.8653 -113.3481 81° East 518 596 37,000  Level Los Angeles Center
09:12PM 32.8892 -113.1781 80° East 516 594 37,000  Level Los Angeles Center
09:13PM 32.9275 -112.9033 80° East 517 595 37,000  Level Albuquerque Center
09:14PM 32.9433 -112.7314 84° East 520 598 37,000  Level Albuquerque Center
09:15PM 32.9222 -112.5644 99° East 514 592 37,000  Level Albuquerque Center
09:16PM 32.8997 -112.3958 99° East 511 588 37,000  Level Albuquerque Center
09:17PM 32.8797 -112.2367 98° East 511 588 37,000  Level Albuquerque Center
09:18PM 32.8583 -112.0703 99° East 511 588 37,000  Level Albuquerque Center
09:19PM 32.8358 -111.9028 99° East 514 592 37,000  Level Albuquerque Center
09:20PM 32.8094 -111.7019 99° East 516 594 37,000  Level Albuquerque Center
09:21PM 32.7867 -111.5342 99° East 516 594 37,000  Level Albuquerque Center
09:22PM 32.7631 -111.3675 100° East 516 594 37,000  Level Albuquerque Center
09:23PM 32.7408 -111.2000 99° East 515 593 37,000  Level Albuquerque Center
09:24PM 32.7167 -111.0294 100° East 519 597 37,000  Level Albuquerque Center
09:25PM 32.6933 -110.8611 99° East 520 598 37,000  Level Albuquerque Center
09:26PM 32.6697 -110.6942 99° East 519 597 37,000  Level Albuquerque Center
09:27PM 32.6408 -110.4914 100° East 519 597 37,000  Level Albuquerque Center
09:28PM 32.6156 -110.3244 100° East 519 597 37,000  Level Albuquerque Center
09:29PM 32.5903 -110.1564 100° East 519 597 37,000  Level Albuquerque Center
09:31PM 32.5644 -109.9883 100° East 520 598 37,000  Level Albuquerque Center
09:32PM 32.5394 -109.8197 100° East 521 600 37,000  Level Albuquerque Center
09:33PM 32.5128 -109.6503 101° East 524 603 37,000  Level Albuquerque Center
09:34PM 32.4869 -109.4825 100° East 524 603 37,000  Level Albuquerque Center
09:35PM 32.4556 -109.2831 101° East 520 598 37,000  Level Albuquerque Center
09:36PM 32.4303 -109.1158 100° East 520 598 37,000  Level Albuquerque Center
09:37PM 32.4042 -108.9492 100° East 521 600 37,000  Level Albuquerque Center
09:38PM 32.3783 -108.7822 100° East 522 601 37,000  Level Albuquerque Center
09:39PM 32.3506 -108.6147 101° East 522 601 37,000  Level Albuquerque Center
09:40PM 32.3192 -108.4250 101° East 519 597 37,000  Level Albuquerque Center
09:41PM 32.2928 -108.2564 100° East 522 601 37,000  Level Albuquerque Center
09:42PM 32.2656 -108.0897 101° East 521 600 37,000  Level Albuquerque Center
09:43PM 32.2369 -107.9233 101° East 520 598 37,000  Level Albuquerque Center
09:44PM 32.2103 -107.7567 101° East 520 598 37,000  Level Albuquerque Center
09:45PM 32.1819 -107.5889 101° East 524 603 37,000  Level Albuquerque Center
09:46PM 32.1536 -107.4222 101° East 524 603 37,000  Level Albuquerque Center
09:47PM 32.1200 -107.2219 101° East 526 605 37,000  Level Albuquerque Center
09:48PM 32.0922 -107.0550 101° East 526 605 37,000  Level Albuquerque Center
09:49PM 32.0631 -106.8875 102° East 527 606 37,000  Level Albuquerque Center
09:50PM 32.0333 -106.7208 102° East 525 604 37,000  Level Albuquerque Center
09:51PM 32.0028 -106.5525 102° East 528 608 37,000  Level Albuquerque Center
09:52PM 31.9731 -106.3850 102° East 527 606 37,000  Level Albuquerque Center
09:53PM 31.9508 -106.1797 97° East 529 609 37,000  Level Albuquerque Center
09:54PM 31.9478 -106.0078 91° East 528 608 37,000  Level Albuquerque Center
09:55PM 31.9439 -105.8314 91° East 523 602 37,000  Level Albuquerque Center
09:56PM 31.9408 -105.6606 91° East 521 600 37,000  Level Albuquerque Center
09:57PM 31.9375 -105.4911 91° East 517 595 37,000  Level Albuquerque Center
09:58PM 31.9339 -105.3231 91° East 515 593 37,000  Level Albuquerque Center
09:59PM 31.9306 -105.1564 91° East 509 586 37,000  Level Albuquerque Center
10:00PM 31.9275 -104.9883 91° East 512 589 37,000  Level Albuquerque Center
10:01PM 31.9239 -104.8194 91° East 514 592 37,000  Level Albuquerque Center
10:02PM 31.9197 -104.6506 92° East 515 593 37,000  Level Albuquerque Center
10:03PM 31.9144 -104.4814 92° East 516 594 37,000  Level Albuquerque Center
10:04PM 31.9103 -104.3150 92° East 512 589 37,000  Level Albuquerque Center
10:05PM 31.9047 -104.1122 92° East 515 593 37,000  Level Albuquerque Center
10:06PM 31.9008 -103.9597 92° East 514 592 37,000  Level Albuquerque Center
10:07PM 31.8944 -103.7917 93° East 514 592 37,000  Level Albuquerque Center
10:08PM 31.8900 -103.6244 92° East 513 590 37,000  Level Albuquerque Center
10:09PM 31.8844 -103.4581 92° East 513 590 37,000  Level Albuquerque Center
10:10PM 31.8772 -103.2564 92° East 515 593 37,000  Level Albuquerque Center
10:11PM 31.8928 -103.1011 83° East 510 587 37,000  Level Albuquerque Center
10:12PM 31.9117 -102.9331 82° East 512 589 37,000  Level Albuquerque Center
10:13PM 31.9319 -102.7656 82° East 515 593 37,000  Level Albuquerque Center
10:15PM 31.9511 -102.5969 82° East 516 594 37,000  Level Albuquerque Center
10:16PM 31.9700 -102.4269 82° East 516 594 37,000  Level Albuquerque Center
10:17PM 31.9958 -102.2242 81° East 519 597 37,000  Level Fort Worth Center
10:18PM 32.0147 -102.0536 83° East 519 597 37,000  Level Fort Worth Center
10:19PM 32.0333 -101.8856 83° East 519 597 37,000  Level Fort Worth Center
10:20PM 32.0517 -101.7222 82° East 519 597 37,000  Level Fort Worth Center
10:21PM 32.0678 -101.5539 84° East 513 590 37,000  Level Fort Worth Center
10:22PM 32.0878 -101.3856 82° East 518 596 37,000  Level Fort Worth Center
10:23PM 32.1036 -101.2147 84° East 518 596 37,000  Level Fort Worth Center
10:24PM 32.1169 -101.0458 85° East 518 596 37,000  Level Fort Worth Center
10:25PM 32.1342 -100.8822 83° East 512 589 37,000  Level Fort Worth Center
10:26PM 32.1489 -100.7161 84° East 512 589 37,000  Level Fort Worth Center
10:27PM 32.1658 -100.5472 83° East 512 589 37,000  Level Fort Worth Center
10:28PM 32.1825 -100.3786 83° East 512 589 37,000  Level Fort Worth Center
10:29PM 32.1967 -100.2097 84° East 517 595 37,000  Level Fort Worth Center
10:30PM 32.2108 -100.0406 84° East 517 595 37,000  Level Fort Worth Center
10:31PM 32.2308 -99.8742 82° East 517 595 37,000  Level Fort Worth Center
10:32PM 32.2489 -99.7028 83° East 522 601 37,000 -300 Level Fort Worth Center
10:33PM 32.2664 -99.5336 83° East 517 595 36,500 -1,380 Descending Fort Worth Center
10:34PM 32.2858 -99.3622 82° East 522 601 34,300 -2,340 Descending Fort Worth Center
10:35PM 32.3050 -99.1931 82° East 522 601 31,900 -2,400 Descending Fort Worth Center
10:36PM 32.3219 -99.0236 83° East 517 595 29,500 -2,400 Descending Fort Worth Center
10:37PM 32.3386 -98.8642 83° East 510 587 27,100 -2,460 Descending Fort Worth Center
10:38PM 32.3569 -98.7144 82° East 484 557 24,600 -2,160 Descending Fort Worth Center
10:39PM 32.3731 -98.5622 83° East 465 535 22,800 -1,800 Descending Fort Worth Center
10:40PM 32.3847 -98.4047 85° East 444 511 21,100 -1,680 Descending Fort Worth Center
10:41PM 32.3961 -98.2819 84° East 424 488 19,500 -1,620 Descending Fort Worth Center
10:42PM 32.4117 -98.1319 83° East 412 474 17,900 -1,560 Descending Fort Worth Center
10:43PM 32.4228 -98.0164 83° East 402 463 16,400 -1,680 Descending Fort Worth Center
10:44PM 32.4381 -97.8714 83° East 402 463 14,600 -1,740 Descending Fort Worth Center
10:45PM 32.4467 -97.7556 85° East 402 463 13,000 -1,740 Descending Fort Worth Center
10:46PM 32.4594 -97.6128 84° East 402 463 11,200 -1,020 Descending Fort Worth Center
10:47PM 32.4783 -97.4972 79° East 397 457 11,000 -120 Descending Fort Worth Center
10:48PM 32.5642 -97.3911 46° Northeast 392 451 11,000  Level Fort Worth Center
10:49PM 32.6414 -97.3000 45° Northeast 390 449 11,000  Level Fort Worth Center
10:50PM 32.6997 -97.2283 46° Northeast 323 372 11,000  Level Fort Worth Center
10:51PM 32.7539 -97.1764 39° Northeast 258 297 11,000 -600 Level Fort Worth Center
10:52PM 32.8144 -97.1736 North 229 264 9,900 -1,440 Descending Fort Worth Center
10:53PM 32.8833 -97.1758 358° North 229 264 8,200 -1,800 Descending Fort Worth Center
10:54PM 32.9186 -97.0992 61° Northeast 218 251 6,400 -1,980 Descending Fort Worth Center
10:54PM 32.9333 -97.0333 75° East 269 310 5,200 -1,920 Descending Dallas / Fort Worth TRACON
10:55PM 32.9500 -96.9833 68° East 268 308 4,000 -1,140 Descending Dallas / Fort Worth TRACON
10:56PM 32.9833 -96.9000 64° Northeast 220 253 3,200 -900 Descending Dallas / Fort Worth TRACON
10:57PM 33.0167 -96.8667 40° Northeast 156 180 2,200 -1,020 Descending Dallas / Fort Worth TRACON
10:58PM 33.0000 -96.8500 140° Southeast 109 125 1,200 -1,020 Descending Dallas / Fort Worth TRACON
11:00PM 32.9667 -96.8333 52° Northeast  Level FlightAware Approximate
11:07PM 32.9686 -96.8364 52° Northeast  Level Estimated
11:08PM 32.9667 -96.8333 52° Northeast  Level FlightAware Approximate